createdAt,value
2017-08-25T00:00:11.817Z,14
2017-08-25T00:01:14.621Z,14
2017-08-25T00:02:17.415Z,13.9
2017-08-25T00:03:19.909Z,13.9
2017-08-25T00:04:22.357Z,13.9
2017-08-25T00:05:25.182Z,13.8
2017-08-25T00:06:27.641Z,13.8
2017-08-25T00:07:30.781Z,13.8
2017-08-25T00:08:33.244Z,13.8
2017-08-25T00:09:35.704Z,13.8
2017-08-25T00:10:38.161Z,13.8
2017-08-25T00:11:40.619Z,13.7
2017-08-25T00:12:43.085Z,13.7
2017-08-25T00:13:45.534Z,13.7
2017-08-25T00:14:48.332Z,13.7
2017-08-25T00:15:50.790Z,13.7
2017-08-25T00:16:53.356Z,13.7
2017-08-25T00:17:55.804Z,13.7
2017-08-25T00:18:58.267Z,13.6
2017-08-25T00:20:00.720Z,13.7
2017-08-25T00:21:03.547Z,13.6
2017-08-25T00:22:05.997Z,13.6
2017-08-25T00:23:08.475Z,13.6
2017-08-25T00:24:10.943Z,13.7
2017-08-25T00:25:13.404Z,13.7
2017-08-25T00:26:15.864Z,13.6
2017-08-25T00:27:18.325Z,13.6
2017-08-25T00:28:20.783Z,13.6
2017-08-25T00:29:23.256Z,13.6
2017-08-25T00:30:25.701Z,13.7
2017-08-25T00:31:28.157Z,13.7
2017-08-25T00:32:30.619Z,13.7
2017-08-25T00:33:33.431Z,13.7
2017-08-25T00:34:36.228Z,13.7
2017-08-25T00:35:39.024Z,13.7
2017-08-25T00:36:41.473Z,13.7
2017-08-25T00:37:43.940Z,13.7
2017-08-25T00:38:46.394Z,13.7
2017-08-25T00:39:48.842Z,13.6
2017-08-25T00:40:51.316Z,13.7
2017-08-25T00:41:53.776Z,13.6
2017-08-25T00:42:56.573Z,13.7
2017-08-25T00:43:59.026Z,13.6
2017-08-25T00:45:01.473Z,13.6
2017-08-25T00:46:03.921Z,13.6
2017-08-25T00:47:06.393Z,13.6
2017-08-25T00:48:08.832Z,13.6
2017-08-25T00:49:11.301Z,13.5
2017-08-25T00:50:13.756Z,13.5
2017-08-25T00:51:16.231Z,13.6
2017-08-25T00:52:18.696Z,13.5
2017-08-25T00:53:21.153Z,13.5
2017-08-25T00:54:23.603Z,13.6
2017-08-25T00:55:26.070Z,13.5
2017-08-25T00:56:28.544Z,13.5
2017-08-25T00:57:30.992Z,13.5
2017-08-25T00:58:33.786Z,13.5
2017-08-25T00:59:36.244Z,13.5
2017-08-25T01:00:39.037Z,13.5
2017-08-25T01:01:42.166Z,13.5
2017-08-25T01:02:44.997Z,13.5
2017-08-25T01:03:47.435Z,13.4
2017-08-25T01:04:49.893Z,13.4
2017-08-25T01:05:52.351Z,13.5
2017-08-25T01:06:54.806Z,13.5
2017-08-25T01:07:57.631Z,13.4
2017-08-25T01:09:00.089Z,13.4
2017-08-25T01:10:02.532Z,13.4
2017-08-25T01:11:05.333Z,13.4
2017-08-25T01:12:07.780Z,13.4
2017-08-25T01:13:10.223Z,13.4
2017-08-25T01:14:12.681Z,13.4
2017-08-25T01:15:15.139Z,13.3
2017-08-25T01:16:17.592Z,13.3
2017-08-25T01:17:20.729Z,13.3
2017-08-25T01:18:23.184Z,13.2
2017-08-25T01:19:25.637Z,13.2
2017-08-25T01:20:28.103Z,13.2
2017-08-25T01:21:30.552Z,13.2
2017-08-25T01:22:33.003Z,13.2
2017-08-25T01:23:35.451Z,13.2
2017-08-25T01:24:38.254Z,13.1
2017-08-25T01:25:40.705Z,13.2
2017-08-25T01:26:43.163Z,13.2
2017-08-25T01:27:45.627Z,13.2
2017-08-25T01:28:48.082Z,13.2
2017-08-25T01:29:50.526Z,13.2
2017-08-25T01:30:52.981Z,13.1
2017-08-25T01:31:55.438Z,13.1
2017-08-25T01:32:57.891Z,13.3
2017-08-25T01:34:00.340Z,13.2
2017-08-25T01:35:02.780Z,13.3
2017-08-25T01:36:05.243Z,13.2
2017-08-25T01:37:07.710Z,13.2
2017-08-25T01:38:10.160Z,13.1
2017-08-25T01:39:12.615Z,13.3
2017-08-25T01:40:15.068Z,13.2
2017-08-25T01:41:17.519Z,13.1
2017-08-25T01:42:19.969Z,13.2
2017-08-25T01:43:22.429Z,13.2
2017-08-25T01:44:24.875Z,13.2
2017-08-25T01:45:27.322Z,13.2
2017-08-25T01:46:30.143Z,13.2
2017-08-25T01:47:32.591Z,13.3
2017-08-25T01:48:35.391Z,13.3
2017-08-25T01:49:37.843Z,13.2
2017-08-25T01:50:40.300Z,13.3
2017-08-25T01:51:43.102Z,13.4
2017-08-25T01:52:45.559Z,13.4
2017-08-25T01:53:48.012Z,13.5
2017-08-25T01:54:50.460Z,13.5
2017-08-25T01:55:52.917Z,13.4
2017-08-25T01:56:55.371Z,13.4
2017-08-25T01:57:57.829Z,13.4
2017-08-25T01:59:00.280Z,13.3
2017-08-25T02:00:02.740Z,13.3
2017-08-25T02:01:05.190Z,13.4
2017-08-25T02:02:07.647Z,13.4
2017-08-25T02:03:10.099Z,13.4
2017-08-25T02:04:12.554Z,13.4
2017-08-25T02:05:15.004Z,13.4
2017-08-25T02:06:17.455Z,13.4
2017-08-25T02:07:19.908Z,13.5
2017-08-25T02:08:22.369Z,13.5
2017-08-25T02:09:25.151Z,13.5
2017-08-25T02:10:27.615Z,13.5
2017-08-25T02:11:30.068Z,13.4
2017-08-25T02:12:32.884Z,13.4
2017-08-25T02:13:35.679Z,13.3
2017-08-25T02:14:38.125Z,13.3
2017-08-25T02:15:40.584Z,13.3
2017-08-25T02:16:43.390Z,13.3
2017-08-25T02:17:45.842Z,13.3
2017-08-25T02:18:48.302Z,13.3
2017-08-25T02:19:50.764Z,13.3
2017-08-25T02:20:53.212Z,13.3
2017-08-25T02:21:55.671Z,13.2
2017-08-25T02:22:58.127Z,13.3
2017-08-25T02:24:00.582Z,13.2
2017-08-25T02:25:03.026Z,13.3
2017-08-25T02:26:05.492Z,13.3
2017-08-25T02:27:07.947Z,13.3
2017-08-25T02:28:10.395Z,13.3
2017-08-25T02:29:12.844Z,13.3
2017-08-25T02:30:15.299Z,13.2
2017-08-25T02:31:17.747Z,13.3
2017-08-25T02:32:20.217Z,13.3
2017-08-25T02:33:22.663Z,13.3
2017-08-25T02:34:25.465Z,13.3
2017-08-25T02:35:28.465Z,13.3
2017-08-25T02:36:30.943Z,13.3
2017-08-25T02:37:33.725Z,13.3
2017-08-25T02:38:36.182Z,13.2
2017-08-25T02:39:38.632Z,13.3
2017-08-25T02:40:41.432Z,13.3
2017-08-25T02:41:43.889Z,13.4
2017-08-25T02:42:46.340Z,13.4
2017-08-25T02:43:48.777Z,13.4
2017-08-25T02:44:51.235Z,13.3
2017-08-25T02:45:54.410Z,13.3
2017-08-25T02:46:56.871Z,13.3
2017-08-25T02:47:59.333Z,13.3
2017-08-25T02:49:01.783Z,13.3
2017-08-25T02:50:04.585Z,13.3
2017-08-25T02:51:07.045Z,13.4
2017-08-25T02:52:09.840Z,13.3
2017-08-25T02:53:12.288Z,13.3
2017-08-25T02:54:15.098Z,13.3
2017-08-25T02:55:17.552Z,13.3
2017-08-25T02:56:20.349Z,13.3
2017-08-25T02:57:22.798Z,13.3
2017-08-25T02:58:25.260Z,13.4
2017-08-25T02:59:28.057Z,13.3
2017-08-25T03:00:30.507Z,13.4
2017-08-25T03:01:32.968Z,13.4
2017-08-25T03:02:35.463Z,13.4
2017-08-25T03:03:37.908Z,13.3
2017-08-25T03:04:40.389Z,13.3
2017-08-25T03:05:42.833Z,13.4
2017-08-25T03:06:45.285Z,13.4
2017-08-25T03:07:47.753Z,13.4
2017-08-25T03:08:50.200Z,13.4
2017-08-25T03:09:53.006Z,13.3
2017-08-25T03:10:55.460Z,13.4
2017-08-25T03:11:58.249Z,13.4
2017-08-25T03:13:00.727Z,13.4
2017-08-25T03:14:03.184Z,13.3
2017-08-25T03:15:05.635Z,13.3
2017-08-25T03:16:08.093Z,13.3
2017-08-25T03:17:10.925Z,13.3
2017-08-25T03:18:13.369Z,13.3
2017-08-25T03:19:15.832Z,13.3
2017-08-25T03:20:18.329Z,13.4
2017-08-25T03:21:20.780Z,13.3
2017-08-25T03:22:23.286Z,13.3
2017-08-25T03:23:25.728Z,13.3
2017-08-25T03:24:28.195Z,13.4
2017-08-25T03:25:31.021Z,13.3
2017-08-25T03:26:33.475Z,13.3
2017-08-25T03:27:35.923Z,13.3
2017-08-25T03:28:38.712Z,13.4
2017-08-25T03:29:41.191Z,13.3
2017-08-25T03:30:43.656Z,13.3
2017-08-25T03:31:46.098Z,13.2
2017-08-25T03:32:48.621Z,13.2
2017-08-25T03:33:51.055Z,13.2
2017-08-25T03:34:53.551Z,13.2
2017-08-25T03:35:56.008Z,13.2
2017-08-25T03:36:58.510Z,13.2
2017-08-25T03:38:00.964Z,13.2
2017-08-25T03:39:03.419Z,13.2
2017-08-25T03:40:06.217Z,13.2
2017-08-25T03:41:09.351Z,13.2
2017-08-25T03:42:11.811Z,13.2
2017-08-25T03:43:14.264Z,13.2
2017-08-25T03:44:16.731Z,13.1
2017-08-25T03:45:19.535Z,13.1
2017-08-25T03:46:21.999Z,13.2
2017-08-25T03:47:24.488Z,13.2
2017-08-25T03:48:26.940Z,13.2
2017-08-25T03:49:29.425Z,13.2
2017-08-25T03:50:31.875Z,13.2
2017-08-25T03:51:34.329Z,13.2
2017-08-25T03:52:36.830Z,13.1
2017-08-25T03:53:39.281Z,13.1
2017-08-25T03:54:41.780Z,13
2017-08-25T03:55:44.242Z,13.1
2017-08-25T03:56:46.739Z,13.1
2017-08-25T03:57:49.178Z,13
2017-08-25T03:58:51.643Z,13
2017-08-25T03:59:54.094Z,13
2017-08-25T04:00:56.541Z,13
2017-08-25T04:01:59.357Z,13
2017-08-25T04:03:01.808Z,13
2017-08-25T04:04:04.264Z,13
2017-08-25T04:05:06.771Z,12.9
2017-08-25T04:06:09.221Z,13
2017-08-25T04:07:11.727Z,12.9
2017-08-25T04:08:14.192Z,12.9
2017-08-25T04:09:16.637Z,12.9
2017-08-25T04:10:19.438Z,12.9
2017-08-25T04:11:21.896Z,12.9
2017-08-25T04:12:24.339Z,12.9
2017-08-25T04:13:26.792Z,12.9
2017-08-25T04:14:29.274Z,13
2017-08-25T04:15:31.720Z,12.9
2017-08-25T04:16:34.189Z,12.9
2017-08-25T04:17:36.989Z,12.9
2017-08-25T04:18:39.435Z,12.8
2017-08-25T04:19:41.926Z,12.9
2017-08-25T04:20:44.385Z,12.9
2017-08-25T04:21:46.842Z,12.9
2017-08-25T04:22:49.325Z,12.8
2017-08-25T04:23:51.777Z,12.8
2017-08-25T04:24:54.235Z,12.9
2017-08-25T04:25:57.028Z,12.9
2017-08-25T04:26:59.496Z,12.9
2017-08-25T04:28:02.323Z,12.9
2017-08-25T04:29:04.764Z,12.9
2017-08-25T04:30:07.611Z,12.9
2017-08-25T04:31:10.062Z,12.9
2017-08-25T04:32:12.915Z,12.9
2017-08-25T04:33:15.375Z,12.9
2017-08-25T04:34:17.880Z,12.9
2017-08-25T04:35:20.324Z,13
2017-08-25T04:36:22.781Z,13
2017-08-25T04:37:25.282Z,12.9
2017-08-25T04:38:28.077Z,12.9
2017-08-25T04:39:30.534Z,12.9
2017-08-25T04:40:32.982Z,12.9
2017-08-25T04:41:35.782Z,12.9
2017-08-25T04:42:38.238Z,13
2017-08-25T04:43:41.075Z,12.9
2017-08-25T04:44:43.515Z,12.9
2017-08-25T04:45:45.970Z,12.9
2017-08-25T04:46:48.419Z,12.9
2017-08-25T04:47:51.217Z,12.9
2017-08-25T04:48:53.674Z,12.9
2017-08-25T04:49:56.114Z,12.9
2017-08-25T04:50:58.574Z,12.9
2017-08-25T04:52:01.074Z,13
2017-08-25T04:53:03.539Z,13.1
2017-08-25T04:54:06.040Z,13.1
2017-08-25T04:55:08.865Z,13.1
2017-08-25T04:56:11.348Z,13.1
2017-08-25T04:57:13.788Z,13.1
2017-08-25T04:58:16.242Z,13.2
2017-08-25T04:59:18.695Z,13.3
2017-08-25T05:00:21.147Z,13.4
2017-08-25T05:01:23.657Z,13.4
2017-08-25T05:02:26.109Z,13.4
2017-08-25T05:03:28.599Z,13.4
2017-08-25T05:04:31.056Z,13.4
2017-08-25T05:05:33.511Z,13.5
2017-08-25T05:06:35.962Z,13.5
2017-08-25T05:07:38.417Z,13.5
2017-08-25T05:08:40.953Z,13.6
2017-08-25T05:09:44.115Z,13.6
2017-08-25T05:10:46.621Z,13.7
2017-08-25T05:11:49.417Z,13.7
2017-08-25T05:12:51.865Z,13.7
2017-08-25T05:13:54.328Z,13.7
2017-08-25T05:14:56.813Z,13.7
2017-08-25T05:15:59.269Z,13.8
2017-08-25T05:17:01.721Z,13.8
2017-08-25T05:18:04.177Z,13.8
2017-08-25T05:19:06.626Z,13.8
2017-08-25T05:20:09.148Z,13.9
2017-08-25T05:21:11.589Z,13.9
2017-08-25T05:22:14.049Z,13.9
2017-08-25T05:23:16.501Z,13.9
2017-08-25T05:24:18.954Z,13.9
2017-08-25T05:25:21.450Z,13.9
2017-08-25T05:26:23.894Z,14
2017-08-25T05:27:26.355Z,14
2017-08-25T05:28:28.810Z,14
2017-08-25T05:29:31.272Z,14
2017-08-25T05:30:33.745Z,14
2017-08-25T05:31:36.191Z,14
2017-08-25T05:32:38.705Z,14
2017-08-25T05:33:41.157Z,14.1
2017-08-25T05:34:43.607Z,14.1
2017-08-25T05:35:46.060Z,14.1
2017-08-25T05:36:48.537Z,14.1
2017-08-25T05:37:51.022Z,14.1
2017-08-25T05:38:53.476Z,14.2
2017-08-25T05:39:55.916Z,14.2
2017-08-25T05:40:58.369Z,14.2
2017-08-25T05:42:00.934Z,14.3
2017-08-25T05:43:03.384Z,14.3
2017-08-25T05:44:05.840Z,14.3
2017-08-25T05:45:08.292Z,14.4
2017-08-25T05:46:10.743Z,14.4
2017-08-25T05:47:13.257Z,14.4
2017-08-25T05:48:15.721Z,14.5
2017-08-25T05:49:18.523Z,14.6
2017-08-25T05:50:20.971Z,14.6
2017-08-25T05:51:23.430Z,14.6
2017-08-25T05:52:25.890Z,14.6
2017-08-25T05:53:28.350Z,14.7
2017-08-25T05:54:30.841Z,14.7
2017-08-25T05:55:33.298Z,14.7
2017-08-25T05:56:35.741Z,14.8
2017-08-25T05:57:38.549Z,14.8
2017-08-25T05:58:41.376Z,14.8
2017-08-25T05:59:43.830Z,14.8
2017-08-25T06:00:46.289Z,14.8
2017-08-25T06:01:48.740Z,14.9
2017-08-25T06:02:51.194Z,14.9
2017-08-25T06:03:54.096Z,15
2017-08-25T06:04:56.592Z,15
2017-08-25T06:05:59.041Z,15.1
2017-08-25T06:07:01.502Z,15.2
2017-08-25T06:08:03.966Z,15.2
2017-08-25T06:09:07.106Z,15.3
2017-08-25T06:10:09.606Z,15.4
2017-08-25T06:11:12.056Z,15.4
2017-08-25T06:12:14.594Z,15.4
2017-08-25T06:13:17.054Z,15.5
2017-08-25T06:14:19.506Z,15.5
2017-08-25T06:15:21.962Z,15.6
2017-08-25T06:16:24.418Z,15.6
2017-08-25T06:17:26.889Z,15.6
2017-08-25T06:18:29.358Z,15.6
2017-08-25T06:19:31.808Z,15.7
2017-08-25T06:20:34.255Z,15.7
2017-08-25T06:21:37.137Z,15.8
2017-08-25T06:22:39.596Z,15.8
2017-08-25T06:23:42.051Z,15.8
2017-08-25T06:24:44.507Z,15.9
2017-08-25T06:25:47.302Z,15.9
2017-08-25T06:26:50.111Z,16
2017-08-25T06:27:52.642Z,16
2017-08-25T06:28:55.449Z,16
2017-08-25T06:29:57.897Z,16
2017-08-25T06:31:00.354Z,16.1
2017-08-25T06:32:02.818Z,16.1
2017-08-25T06:33:05.359Z,16.1
2017-08-25T06:34:07.814Z,16.1
2017-08-25T06:35:10.274Z,16.1
2017-08-25T06:36:12.726Z,16.1
2017-08-25T06:37:15.531Z,16.1
2017-08-25T06:38:17.985Z,16.1
2017-08-25T06:39:20.434Z,16.2
2017-08-25T06:40:22.986Z,16.2
2017-08-25T06:41:25.438Z,16.2
2017-08-25T06:42:27.892Z,16.2
2017-08-25T06:43:30.361Z,16.2
2017-08-25T06:44:32.858Z,16.2
2017-08-25T06:45:35.676Z,16.3
2017-08-25T06:46:38.135Z,16.3
2017-08-25T06:47:40.588Z,16.3
2017-08-25T06:48:43.050Z,16.3
2017-08-25T06:49:45.557Z,16.3
2017-08-25T06:50:48.011Z,16.3
2017-08-25T06:51:50.827Z,16.3
2017-08-25T06:52:53.280Z,16.3
2017-08-25T06:53:55.751Z,16.3
2017-08-25T06:54:58.545Z,16.4
2017-08-25T06:56:01.042Z,16.4
2017-08-25T06:57:03.498Z,16.4
2017-08-25T06:58:05.949Z,16.4
2017-08-25T06:59:08.404Z,16.4
2017-08-25T07:00:10.859Z,16.5
2017-08-25T07:01:13.352Z,16.5
2017-08-25T07:02:15.813Z,16.5
2017-08-25T07:03:18.275Z,16.5
2017-08-25T07:04:20.727Z,16.4
2017-08-25T07:05:23.189Z,16.5
2017-08-25T07:06:26.326Z,16.5
2017-08-25T07:07:28.828Z,16.4
2017-08-25T07:08:31.287Z,16.5
2017-08-25T07:09:33.743Z,16.5
2017-08-25T07:10:36.312Z,16.5
2017-08-25T07:11:38.776Z,16.5
2017-08-25T07:12:41.233Z,16.5
2017-08-25T07:13:43.685Z,16.6
2017-08-25T07:14:46.651Z,16.6
2017-08-25T07:15:49.177Z,16.6
2017-08-25T07:16:51.770Z,16.6
2017-08-25T07:17:54.318Z,16.6
2017-08-25T07:18:56.947Z,16.6
2017-08-25T07:19:59.409Z,16.7
2017-08-25T07:21:01.868Z,16.8
2017-08-25T07:22:04.333Z,16.9
2017-08-25T07:23:06.790Z,16.9
2017-08-25T07:24:09.243Z,16.9
2017-08-25T07:25:11.700Z,17
2017-08-25T07:26:14.499Z,16.9
2017-08-25T07:27:16.965Z,16.9
2017-08-25T07:28:19.417Z,17
2017-08-25T07:29:21.843Z,17
2017-08-25T07:30:24.261Z,17
2017-08-25T07:31:26.692Z,17
2017-08-25T07:32:29.110Z,17
2017-08-25T07:33:31.546Z,17.1
2017-08-25T07:34:33.990Z,17.2
2017-08-25T07:35:36.509Z,17.2
2017-08-25T07:36:39.754Z,17.3
2017-08-25T07:37:42.295Z,17.2
2017-08-25T07:38:44.761Z,17.3
2017-08-25T07:39:47.189Z,17.4
2017-08-25T07:40:49.642Z,17.4
2017-08-25T07:41:52.128Z,17.3
2017-08-25T07:42:54.588Z,17.4
2017-08-25T07:43:57.059Z,17.4
2017-08-25T07:44:59.494Z,17.4
2017-08-25T07:46:01.972Z,17.4
2017-08-25T07:47:04.454Z,17.5
2017-08-25T07:48:06.910Z,17.6
2017-08-25T07:49:09.336Z,17.5
2017-08-25T07:50:11.801Z,17.6
2017-08-25T07:51:14.249Z,17.7
2017-08-25T07:52:16.677Z,17.7
2017-08-25T07:53:19.169Z,17.9
2017-08-25T07:54:21.592Z,17.9
2017-08-25T07:55:24.007Z,18
2017-08-25T07:56:26.456Z,18
2017-08-25T07:57:29.241Z,18
2017-08-25T07:58:31.704Z,18.1
2017-08-25T07:59:34.481Z,18.1
2017-08-25T08:00:36.903Z,18.3
2017-08-25T08:01:39.735Z,18.2
2017-08-25T08:02:42.512Z,18.3
2017-08-25T08:03:44.980Z,18.3
2017-08-25T08:04:47.441Z,18.4
2017-08-25T08:05:49.857Z,18.6
2017-08-25T08:06:52.292Z,18.9
2017-08-25T08:07:54.708Z,19.2
2017-08-25T08:08:57.142Z,19.5
2017-08-25T08:09:59.570Z,19.6
2017-08-25T08:11:01.995Z,19.6
2017-08-25T08:12:04.472Z,19.5
2017-08-25T08:13:06.899Z,19.4
2017-08-25T08:14:09.352Z,19.4
2017-08-25T08:15:11.805Z,19.4
2017-08-25T08:16:14.227Z,19.3
2017-08-25T08:17:16.653Z,19.4
2017-08-25T08:18:19.473Z,19.4
2017-08-25T08:19:21.939Z,19.3
2017-08-25T08:20:24.380Z,19.4
2017-08-25T08:21:27.196Z,19.5
2017-08-25T08:22:29.669Z,19.4
2017-08-25T08:23:32.117Z,19.4
2017-08-25T08:24:34.533Z,19.6
2017-08-25T08:25:36.996Z,19.8
2017-08-25T08:26:39.464Z,19.9
2017-08-25T08:27:41.917Z,19.9
2017-08-25T08:28:44.707Z,19.8
2017-08-25T08:29:47.142Z,20
2017-08-25T08:30:49.558Z,19.9
2017-08-25T08:31:51.999Z,20
2017-08-25T08:32:54.411Z,20.1
2017-08-25T08:33:56.860Z,20.3
2017-08-25T08:34:59.280Z,20.4
2017-08-25T08:36:01.711Z,20.4
2017-08-25T08:37:04.122Z,20.4
2017-08-25T08:38:06.531Z,20.3
2017-08-25T08:39:08.945Z,20.2
2017-08-25T08:40:11.387Z,20
2017-08-25T08:41:13.884Z,20
2017-08-25T08:42:16.296Z,19.7
2017-08-25T08:43:18.712Z,19.8
2017-08-25T08:44:21.117Z,19.9
2017-08-25T08:45:23.548Z,20
2017-08-25T08:46:26.004Z,20.2
2017-08-25T08:47:28.412Z,20.4
2017-08-25T08:48:30.849Z,20.4
2017-08-25T08:49:33.276Z,20
2017-08-25T08:50:35.695Z,20.1
2017-08-25T08:51:38.149Z,20.3
2017-08-25T08:52:40.554Z,20.6
2017-08-25T08:53:43.302Z,20.9
2017-08-25T08:54:45.759Z,20.9
2017-08-25T08:55:48.174Z,21.1
2017-08-25T08:56:50.619Z,21.1
2017-08-25T08:57:53.106Z,21.2
2017-08-25T08:58:55.517Z,21.1
2017-08-25T08:59:57.947Z,21.1
2017-08-25T09:01:00.363Z,21.2
2017-08-25T09:02:02.840Z,21
2017-08-25T09:03:05.326Z,20.7
2017-08-25T09:04:07.731Z,20.5
2017-08-25T09:05:10.857Z,20.4
2017-08-25T09:06:13.492Z,20.3
2017-08-25T09:07:15.959Z,20
2017-08-25T09:08:18.375Z,19.9
2017-08-25T09:09:20.798Z,19.9
2017-08-25T09:10:23.285Z,19.6
2017-08-25T09:11:25.788Z,19.6
2017-08-25T09:12:28.288Z,19.7
2017-08-25T09:13:31.047Z,19.7
2017-08-25T09:14:33.591Z,19.7
2017-08-25T09:15:36.159Z,19.8
2017-08-25T09:16:38.555Z,19.8
2017-08-25T09:17:40.974Z,20
2017-08-25T09:18:43.442Z,20.1
2017-08-25T09:19:45.859Z,20.3
2017-08-25T09:20:48.406Z,20.4
2017-08-25T09:21:50.812Z,20.5
2017-08-25T09:22:53.291Z,20.7
2017-08-25T09:23:55.905Z,20.8
2017-08-25T09:24:58.311Z,21
2017-08-25T09:26:00.791Z,21.2
2017-08-25T09:27:03.596Z,21.1
2017-08-25T09:28:06.388Z,21
2017-08-25T09:29:08.827Z,21
2017-08-25T09:30:11.233Z,21.1
2017-08-25T09:31:13.646Z,21.2
2017-08-25T09:32:16.405Z,21.1
2017-08-25T09:33:18.816Z,21.2
2017-08-25T09:34:21.228Z,21.3
2017-08-25T09:35:23.648Z,21.4
2017-08-25T09:36:26.062Z,21.5
2017-08-25T09:37:28.473Z,21.4
2017-08-25T09:38:30.885Z,21.3
2017-08-25T09:39:33.305Z,21.4
2017-08-25T09:40:36.037Z,21.5
2017-08-25T09:41:38.460Z,21.5
2017-08-25T09:42:40.865Z,21.5
2017-08-25T09:43:43.358Z,21.8
2017-08-25T09:44:45.835Z,21.8
2017-08-25T09:45:48.246Z,21.8
2017-08-25T09:46:50.713Z,21.5
2017-08-25T09:47:53.143Z,21.3
2017-08-25T09:48:55.552Z,21.3
2017-08-25T09:49:57.964Z,21.6
2017-08-25T09:51:00.373Z,21.7
2017-08-25T09:52:02.793Z,21.7
2017-08-25T09:53:05.212Z,22.1
2017-08-25T09:54:07.629Z,22.2
2017-08-25T09:55:10.037Z,22.1
2017-08-25T09:56:12.444Z,22.4
2017-08-25T09:57:14.868Z,22.5
2017-08-25T09:58:17.293Z,22.6
2017-08-25T09:59:20.133Z,22.7
2017-08-25T10:00:22.611Z,22.6
2017-08-25T10:01:25.057Z,22.9
2017-08-25T10:02:27.511Z,22.9
2017-08-25T10:03:29.948Z,22.7
2017-08-25T10:04:32.355Z,22.8
2017-08-25T10:05:34.772Z,22.8
2017-08-25T10:06:37.202Z,23.1
2017-08-25T10:07:39.702Z,23
2017-08-25T10:08:42.123Z,22.8
2017-08-25T10:09:44.543Z,22.5
2017-08-25T10:10:46.965Z,22.3
2017-08-25T10:11:49.388Z,22.2
2017-08-25T10:12:51.808Z,22
2017-08-25T10:13:54.218Z,22.5
2017-08-25T10:14:56.636Z,22.7
2017-08-25T10:15:59.054Z,22.5
2017-08-25T10:17:01.472Z,22.3
2017-08-25T10:18:03.887Z,22
2017-08-25T10:19:06.300Z,22.2
2017-08-25T10:20:09.140Z,22.3
2017-08-25T10:21:11.549Z,22.2
2017-08-25T10:22:13.968Z,22.3
2017-08-25T10:23:16.385Z,22.5
2017-08-25T10:24:18.880Z,23
2017-08-25T10:25:21.293Z,22.9
2017-08-25T10:26:23.713Z,22.9
2017-08-25T10:27:26.127Z,22.8
2017-08-25T10:28:28.644Z,22.9
2017-08-25T10:29:31.067Z,22.8
2017-08-25T10:30:33.477Z,22.4
2017-08-25T10:31:35.894Z,22.4
2017-08-25T10:32:38.406Z,22.2
2017-08-25T10:33:40.809Z,22.3
2017-08-25T10:34:43.223Z,22.3
2017-08-25T10:35:45.649Z,22.3
2017-08-25T10:36:48.062Z,22.3
2017-08-25T10:37:50.490Z,22.1
2017-08-25T10:38:52.905Z,22.2
2017-08-25T10:39:55.433Z,22.2
2017-08-25T10:40:57.852Z,22.2
2017-08-25T10:42:00.275Z,22.1
2017-08-25T10:43:02.781Z,22
2017-08-25T10:44:05.202Z,21.9
2017-08-25T10:45:07.738Z,21.9
2017-08-25T10:46:10.149Z,21.9
2017-08-25T10:47:13.247Z,21.8
2017-08-25T10:48:15.662Z,21.7
2017-08-25T10:49:18.083Z,21.7
2017-08-25T10:50:20.609Z,21.5
2017-08-25T10:51:23.364Z,21.5
2017-08-25T10:52:25.776Z,21.5
2017-08-25T10:53:28.203Z,21.6
2017-08-25T10:54:30.630Z,21.7
2017-08-25T10:55:33.900Z,21.7
2017-08-25T10:56:36.312Z,21.4
2017-08-25T10:57:39.066Z,21.4
2017-08-25T10:58:41.486Z,21.2
2017-08-25T10:59:43.901Z,21.1
2017-08-25T11:00:46.540Z,21.1
2017-08-25T11:01:48.941Z,21
2017-08-25T11:02:51.725Z,20.8
2017-08-25T11:03:54.128Z,20.6
2017-08-25T11:04:56.749Z,20.7
2017-08-25T11:05:59.161Z,20.6
2017-08-25T11:07:01.600Z,20.5
2017-08-25T11:08:04.501Z,20.5
2017-08-25T11:09:06.906Z,20.5
2017-08-25T11:10:09.328Z,20.5
2017-08-25T11:11:11.740Z,20.6
2017-08-25T11:12:14.148Z,20.6
2017-08-25T11:13:16.568Z,20.5
2017-08-25T11:14:18.976Z,20.5
2017-08-25T11:15:21.391Z,20.6
2017-08-25T11:16:23.803Z,20.5
2017-08-25T11:17:26.219Z,20.5
2017-08-25T11:18:28.838Z,20.5
2017-08-25T11:19:31.256Z,20.5
2017-08-25T11:20:33.712Z,20.4
2017-08-25T11:21:36.253Z,20.5
2017-08-25T11:22:38.667Z,20.7
2017-08-25T11:23:41.423Z,20.8
2017-08-25T11:24:43.831Z,20.8
2017-08-25T11:25:46.247Z,20.9
2017-08-25T11:26:48.660Z,21
2017-08-25T11:27:51.065Z,21.3
2017-08-25T11:28:53.479Z,21.6
2017-08-25T11:29:55.898Z,22
2017-08-25T11:30:58.316Z,22.2
2017-08-25T11:32:01.236Z,22.1
2017-08-25T11:33:10.088Z,22
2017-08-25T11:34:22.413Z,22.2
2017-08-25T11:35:36.851Z,22.2
2017-08-25T11:36:50.987Z,22.2
2017-08-25T11:38:07.280Z,22.1
2017-08-25T11:39:20.472Z,21.8
2017-08-25T11:40:35.008Z,21.6
2017-08-25T11:41:48.262Z,21.4
2017-08-25T11:42:58.576Z,21.4
2017-08-25T11:44:12.518Z,21.3
2017-08-25T11:45:24.943Z,21.2
2017-08-25T11:46:30.766Z,21.4
2017-08-25T11:47:33.234Z,21.2
2017-08-25T11:48:35.674Z,21.2
2017-08-25T11:49:38.096Z,21
2017-08-25T11:50:40.870Z,20.9
2017-08-25T11:51:43.299Z,21
2017-08-25T11:52:45.718Z,21
2017-08-25T11:53:48.137Z,21
2017-08-25T11:54:50.559Z,21.2
2017-08-25T11:55:53.309Z,21.3
2017-08-25T11:56:55.722Z,21.6
2017-08-25T11:57:58.139Z,21.9
2017-08-25T11:59:00.861Z,22.1
2017-08-25T12:00:03.287Z,22.4
2017-08-25T12:01:06.230Z,22.5
2017-08-25T12:02:08.668Z,22.8
2017-08-25T12:03:11.440Z,23.1
2017-08-25T12:04:13.898Z,23
2017-08-25T12:05:17.531Z,23.1
2017-08-25T12:06:19.962Z,23.1
2017-08-25T12:07:22.387Z,23.2
2017-08-25T12:08:24.799Z,23.2
2017-08-25T12:09:27.233Z,23.2
2017-08-25T12:10:30.178Z,23.6
2017-08-25T12:11:32.591Z,23.5
2017-08-25T12:12:35.227Z,23.7
2017-08-25T12:13:37.648Z,23.9
2017-08-25T12:14:40.077Z,23.8
2017-08-25T12:15:42.497Z,23.8
2017-08-25T12:16:45.084Z,23.6
2017-08-25T12:17:47.502Z,23.2
2017-08-25T12:18:49.935Z,22.9
2017-08-25T12:19:52.339Z,22.8
2017-08-25T12:20:54.763Z,22.8
2017-08-25T12:21:57.181Z,22.6
2017-08-25T12:22:59.883Z,22.5
2017-08-25T12:24:02.355Z,22.4
2017-08-25T12:25:04.766Z,22.5
2017-08-25T12:26:07.174Z,22.8
2017-08-25T12:27:09.589Z,22.9
2017-08-25T12:28:12.283Z,23
2017-08-25T12:29:15.135Z,23.2
2017-08-25T12:30:17.892Z,23.6
2017-08-25T12:31:20.663Z,23.6
2017-08-25T12:32:23.077Z,23.6
2017-08-25T12:33:25.496Z,23.7
2017-08-25T12:34:27.916Z,24
2017-08-25T12:35:30.451Z,23.9
2017-08-25T12:36:32.867Z,24
2017-08-25T12:37:35.287Z,23.9
2017-08-25T12:38:37.697Z,23.8
2017-08-25T12:39:40.115Z,23.8
2017-08-25T12:40:42.534Z,23.8
2017-08-25T12:41:45.066Z,23.6
2017-08-25T12:42:47.501Z,23.6
2017-08-25T12:43:49.921Z,23.4
2017-08-25T12:44:52.334Z,23.1
2017-08-25T12:45:54.762Z,23
2017-08-25T12:46:57.171Z,23.1
2017-08-25T12:47:59.589Z,23.2
2017-08-25T12:49:02.107Z,23.1
2017-08-25T12:50:04.528Z,22.9
2017-08-25T12:51:06.937Z,22.7
2017-08-25T12:52:09.356Z,22.8
2017-08-25T12:53:11.787Z,22.7
2017-08-25T12:54:14.194Z,22.6
2017-08-25T12:55:16.939Z,22.6
2017-08-25T12:56:19.361Z,22.5
2017-08-25T12:57:21.786Z,22.4
2017-08-25T12:58:24.208Z,22
2017-08-25T12:59:26.644Z,22
2017-08-25T13:00:29.054Z,22
2017-08-25T13:01:31.494Z,22
2017-08-25T13:02:33.919Z,22.1
2017-08-25T13:03:36.332Z,22
2017-08-25T13:04:38.746Z,22.1
2017-08-25T13:05:41.897Z,22.1
2017-08-25T13:06:44.658Z,21.9
2017-08-25T13:07:47.382Z,21.6
2017-08-25T13:08:49.801Z,21.7
2017-08-25T13:09:52.563Z,21.6
2017-08-25T13:10:54.992Z,21.6
2017-08-25T13:11:57.403Z,21.8
2017-08-25T13:12:59.956Z,22
2017-08-25T13:14:02.443Z,22.2
2017-08-25T13:15:04.863Z,22.6
2017-08-25T13:16:07.275Z,22.6
2017-08-25T13:17:09.697Z,22.6
2017-08-25T13:18:12.509Z,22.9
2017-08-25T13:19:15.736Z,23
2017-08-25T13:20:18.167Z,23.4
2017-08-25T13:21:20.594Z,23.6
2017-08-25T13:22:23.008Z,23.6
2017-08-25T13:23:25.678Z,23.9
2017-08-25T13:24:28.114Z,23.7
2017-08-25T13:25:30.534Z,23.5
2017-08-25T13:26:32.962Z,23
2017-08-25T13:27:35.374Z,23
2017-08-25T13:28:37.923Z,23.1
2017-08-25T13:29:40.340Z,23.1
2017-08-25T13:30:43.104Z,23.4
2017-08-25T13:31:45.522Z,23.7
2017-08-25T13:32:48.840Z,23.6
2017-08-25T13:33:52.664Z,23.8
2017-08-25T13:34:55.120Z,23.7
2017-08-25T13:35:57.534Z,23.8
2017-08-25T13:36:59.967Z,23.9
2017-08-25T13:38:02.389Z,24
2017-08-25T13:39:04.811Z,24.2
2017-08-25T13:40:07.242Z,24.2
2017-08-25T13:41:10.355Z,24.6
2017-08-25T13:42:12.802Z,24.6
2017-08-25T13:43:16.096Z,24.7
2017-08-25T13:44:18.522Z,24.5
2017-08-25T13:45:20.964Z,24.8
2017-08-25T13:46:24.066Z,24.9
2017-08-25T13:47:26.579Z,24.7
2017-08-25T13:48:29.007Z,24.5
2017-08-25T13:49:31.429Z,24.7
2017-08-25T13:50:33.856Z,24.8
2017-08-25T13:51:36.274Z,24.5
2017-08-25T13:52:38.705Z,24.4
2017-08-25T13:53:41.128Z,24.1
2017-08-25T13:54:43.641Z,24
2017-08-25T13:55:46.413Z,23.8
2017-08-25T13:56:48.824Z,23.6
2017-08-25T13:57:51.241Z,23.7
2017-08-25T13:58:53.661Z,23.7